createdAt,value
2019-04-21T00:01:24.247Z,16.70
2019-04-21T00:03:07.346Z,17.17
2019-04-21T00:04:50.832Z,17.50
2019-04-21T00:06:36.890Z,15.80
2019-04-21T00:08:24.894Z,17.07
2019-04-21T00:09:53.721Z,18.23
2019-04-21T00:11:38.646Z,20.97
2019-04-21T00:13:18.997Z,19.17
2019-04-21T00:14:49.514Z,15.53
2019-04-21T00:16:24.604Z,15.50
2019-04-21T00:18:02.439Z,17.60
2019-04-21T00:19:45.971Z,16.20
2019-04-21T00:21:32.595Z,14.77
2019-04-21T00:23:18.090Z,19.50
2019-04-21T00:24:51.933Z,17.73
2019-04-21T00:26:33.400Z,18.90
2019-04-21T00:28:16.918Z,19.03
2019-04-21T00:29:54.958Z,18.13
2019-04-21T00:31:28.617Z,21.97
2019-04-21T00:32:59.976Z,17.53
2019-04-21T00:34:28.189Z,17.73
2019-04-21T00:36:11.251Z,15.67
2019-04-21T00:38:00.624Z,14.57
2019-04-21T00:39:54.037Z,18.03
2019-04-21T00:41:19.608Z,16.30
2019-04-21T00:42:56.933Z,18.17
2019-04-21T00:44:27.484Z,20.90
2019-04-21T00:46:04.733Z,17.97
2019-04-21T00:47:51.146Z,16.40
2019-04-21T00:49:24.293Z,15.23
2019-04-21T00:51:24.982Z,16.67
2019-04-21T00:52:57.809Z,17.67
2019-04-21T00:54:41.710Z,16.47
2019-04-21T00:56:15.289Z,15.73
2019-04-21T00:58:00.049Z,18.70
2019-04-21T00:59:34.998Z,15.37
2019-04-21T01:01:09.020Z,18.87
2019-04-21T01:02:52.903Z,16.33
2019-04-21T01:04:23.454Z,15.53
2019-04-21T01:06:03.652Z,18.67
2019-04-21T01:07:42.032Z,21.27
2019-04-21T01:09:22.534Z,19.20
2019-04-21T01:10:51.460Z,23.63
2019-04-21T01:12:37.966Z,17.57
2019-04-21T01:14:25.869Z,17.60
2019-04-21T01:15:52.811Z,17.23
2019-04-21T01:17:28.795Z,18.10
2019-04-21T01:19:12.118Z,19.80
2019-04-21T01:20:27.815Z,13.80
2019-04-21T01:22:05.216Z,18.10
2019-04-21T01:23:42.702Z,14.10
2019-04-21T01:25:29.325Z,20.07
2019-04-21T01:27:06.475Z,20.43
2019-04-21T01:28:54.419Z,16.53
2019-04-21T01:30:34.331Z,17.73
2019-04-21T01:32:19.730Z,21.10
2019-04-21T01:33:50.877Z,19.90
2019-04-21T01:35:35.609Z,17.73
2019-04-21T01:37:05.932Z,19.23
2019-04-21T01:38:52.442Z,19.20
2019-04-21T01:40:40.869Z,19.33
2019-04-21T01:42:12.726Z,21.17
2019-04-21T01:43:45.742Z,19.67
2019-04-21T01:45:26.506Z,18.13
2019-04-21T01:46:58.647Z,19.97
2019-04-21T01:48:39.101Z,18.77
2019-04-21T01:50:14.333Z,16.73
2019-04-21T01:52:09.604Z,22.33
2019-04-21T01:53:45.032Z,21.50
2019-04-21T01:55:36.728Z,23.17
2019-04-21T01:57:12.372Z,21.90
2019-04-21T01:58:42.828Z,18.80
2019-04-21T02:00:38.979Z,23.33
2019-04-21T02:02:17.091Z,19.53
2019-04-21T02:03:58.376Z,20.97
2019-04-21T02:05:37.478Z,20.50
2019-04-21T02:07:14.613Z,21.80
2019-04-21T02:08:50.199Z,23.90
2019-04-21T02:10:35.194Z,18.33
2019-04-21T02:12:10.546Z,19.13
2019-04-21T02:13:53.355Z,21.60
2019-04-21T02:15:30.894Z,19.20
2019-04-21T02:17:05.560Z,20.93
2019-04-21T02:18:47.803Z,21.27
2019-04-21T02:20:15.498Z,25.10
2019-04-21T02:21:56.692Z,24.73
2019-04-21T02:25:22.864Z,20.43
2019-04-21T02:27:17.397Z,19.63
2019-04-21T02:29:34.770Z,19.20
2019-04-21T02:31:20.398Z,20.17
2019-04-21T02:33:02.938Z,19.53
2019-04-21T02:34:41.686Z,21.10
2019-04-21T02:36:30.946Z,22.27
2019-04-21T02:39:00.249Z,22.97
2019-04-21T02:40:33.101Z,18.13
2019-04-21T02:42:15.710Z,22.63
2019-04-21T02:45:23.482Z,22.27
2019-04-21T02:46:54.584Z,20.40
2019-04-21T02:48:43.504Z,22.17
2019-04-21T02:52:02.158Z,20.13
2019-04-21T02:53:48.155Z,20.70
2019-04-21T02:55:06.485Z,21.10
2019-04-21T02:56:52.691Z,20.60
2019-04-21T02:58:34.861Z,18.30
2019-04-21T03:00:16.352Z,20.23
2019-04-21T03:02:04.213Z,20.57
2019-04-21T03:05:21.176Z,18.50
2019-04-21T03:07:15.058Z,17.63
2019-04-21T03:12:11.628Z,18.23
2019-04-21T03:15:27.329Z,21.00
2019-04-21T03:17:03.422Z,20.27
2019-04-21T03:18:45.878Z,26.23
2019-04-21T03:20:19.435Z,20.27
2019-04-21T03:21:57.404Z,19.70
2019-04-21T03:23:38.847Z,18.03
2019-04-21T03:25:33.558Z,17.63
2019-04-21T03:28:32.432Z,18.27
2019-04-21T03:30:26.771Z,19.23
2019-04-21T03:37:00.665Z,19.60
2019-04-21T03:40:08.039Z,18.43
2019-04-21T03:41:51.564Z,18.37
2019-04-21T03:44:45.714Z,16.30
2019-04-21T03:46:37.343Z,19.20
2019-04-21T03:48:01.164Z,27.43
2019-04-21T03:49:47.715Z,29.43
2019-04-21T03:51:20.243Z,25.37
2019-04-21T03:54:46.504Z,48.73
2019-04-21T03:56:23.295Z,26.67
2019-04-21T03:58:19.486Z,29.73
2019-04-21T03:59:25.056Z,26.53
2019-04-21T04:03:27.468Z,29.70
2019-04-21T04:06:27.342Z,20.67
2019-04-21T04:08:26.591Z,19.53
2019-04-21T04:13:05.444Z,21.10
2019-04-21T04:14:44.512Z,21.73
2019-04-21T04:16:31.302Z,22.87
2019-04-21T04:17:54.399Z,21.07
2019-04-21T04:19:39.302Z,19.47
2019-04-21T04:21:20.293Z,20.50
2019-04-21T04:22:59.058Z,17.50
2019-04-21T04:24:49.886Z,18.60
2019-04-21T04:29:26.293Z,21.70
2019-04-21T04:31:05.072Z,21.30
2019-04-21T04:34:22.839Z,21.00
2019-04-21T04:37:41.727Z,18.70
2019-04-21T04:39:36.496Z,20.63
2019-04-21T04:41:11.649Z,21.47
2019-04-21T04:44:24.887Z,18.73
2019-04-21T04:45:58.829Z,16.33
2019-04-21T04:47:34.976Z,20.53
2019-04-21T04:49:23.708Z,19.07
2019-04-21T04:50:58.762Z,18.97
2019-04-21T04:52:32.741Z,19.30
2019-04-21T04:54:17.461Z,23.17
2019-04-21T04:57:34.308Z,24.87
2019-04-21T05:03:57.041Z,21.80
2019-04-21T05:06:06.615Z,27.70
2019-04-21T05:07:17.476Z,23.07
2019-04-21T05:09:02.778Z,21.90
2019-04-21T05:10:38.538Z,23.00
2019-04-21T05:12:03.630Z,24.63
2019-04-21T05:15:16.214Z,25.60
2019-04-21T05:17:02.247Z,21.73
2019-04-21T05:18:48.916Z,23.27
2019-04-21T05:20:24.951Z,21.20
2019-04-21T05:22:01.708Z,20.10
2019-04-21T05:23:27.133Z,22.83
2019-04-21T05:25:02.433Z,18.83
2019-04-21T05:26:42.220Z,21.90
2019-04-21T05:28:11.547Z,23.53
2019-04-21T05:30:01.873Z,23.00
2019-04-21T05:31:43.067Z,19.50
2019-04-21T05:33:33.224Z,19.13
2019-04-21T05:35:07.660Z,30.93
2019-04-21T05:36:52.024Z,24.63
2019-04-21T05:38:34.690Z,30.47
2019-04-21T05:40:10.253Z,26.03
2019-04-21T05:41:43.746Z,24.57
2019-04-21T05:43:32.592Z,22.90
2019-04-21T05:47:05.941Z,20.53
2019-04-21T05:48:35.362Z,22.40
2019-04-21T05:50:14.608Z,21.40
2019-04-21T05:51:55.654Z,22.97
2019-04-21T05:53:36.342Z,20.17
2019-04-21T05:55:18.187Z,19.60
2019-04-21T05:56:55.531Z,21.13
2019-04-21T05:58:32.945Z,20.27
2019-04-21T06:00:08.850Z,22.13
2019-04-21T06:01:55.467Z,19.40
2019-04-21T06:03:32.387Z,21.60
2019-04-21T06:06:47.659Z,21.97
2019-04-21T06:08:27.075Z,19.77
2019-04-21T06:10:02.826Z,19.33
2019-04-21T06:11:40.690Z,21.80
2019-04-21T06:15:01.039Z,23.80
2019-04-21T06:16:36.411Z,21.40
2019-04-21T06:18:12.334Z,19.43
2019-04-21T06:21:28.051Z,19.87
2019-04-21T06:23:03.262Z,18.03
2019-04-21T06:24:54.331Z,21.23
2019-04-21T06:27:58.731Z,19.37
2019-04-21T06:29:37.806Z,21.37
2019-04-21T06:31:20.218Z,25.60
2019-04-21T06:32:57.953Z,23.70
2019-04-21T06:34:49.271Z,23.07
2019-04-21T06:37:56.537Z,21.90
2019-04-21T06:41:21.616Z,22.17
2019-04-21T06:43:07.932Z,24.60
2019-04-21T06:44:32.033Z,20.33
2019-04-21T06:46:22.189Z,17.60
2019-04-21T06:47:51.208Z,16.37
2019-04-21T06:49:25.163Z,15.97
2019-04-21T06:51:09.367Z,19.03
2019-04-21T06:52:50.007Z,18.13
2019-04-21T06:54:23.826Z,18.50
2019-04-21T06:56:00.054Z,19.00
2019-04-21T06:57:40.319Z,20.30
2019-04-21T06:59:09.578Z,15.97
2019-04-21T07:00:47.674Z,15.87
2019-04-21T07:06:06.989Z,18.20
2019-04-21T07:07:35.144Z,18.17
2019-04-21T07:10:51.693Z,17.10
2019-04-21T07:12:32.254Z,15.57
2019-04-21T07:15:57.098Z,18.67
2019-04-21T07:19:14.608Z,18.00
2019-04-21T07:20:45.366Z,18.13
2019-04-21T07:22:17.643Z,18.57
2019-04-21T07:24:00.026Z,13.30
2019-04-21T07:25:41.927Z,16.17
2019-04-21T07:27:15.568Z,14.37
2019-04-21T07:28:56.483Z,14.33
2019-04-21T07:30:37.770Z,16.40
2019-04-21T07:32:09.336Z,20.20
2019-04-21T07:35:28.134Z,15.23
2019-04-21T07:37:00.937Z,14.40
2019-04-21T07:38:39.734Z,21.13
2019-04-21T07:40:17.825Z,17.50
2019-04-21T07:41:54.292Z,14.60
2019-04-21T07:43:29.966Z,17.23
2019-04-21T07:45:07.035Z,13.50
2019-04-21T07:46:45.195Z,12.83
2019-04-21T07:48:32.509Z,12.00
2019-04-21T07:50:16.216Z,14.27
2019-04-21T07:51:56.700Z,14.07
2019-04-21T07:53:59.590Z,11.07
2019-04-21T07:57:00.604Z,11.70
2019-04-21T07:58:47.601Z,13.27
2019-04-21T08:00:45.374Z,10.30
2019-04-21T08:02:02.534Z,12.53
2019-04-21T08:03:42.843Z,15.27
2019-04-21T08:05:19.862Z,10.90
2019-04-21T08:07:10.584Z,10.80
2019-04-21T08:08:34.572Z,15.93
2019-04-21T08:10:09.176Z,11.70
2019-04-21T08:11:44.285Z,11.20
2019-04-21T08:13:34.573Z,9.97
2019-04-21T08:15:09.892Z,13.33
2019-04-21T08:16:44.917Z,8.60
2019-04-21T08:18:25.495Z,15.10
2019-04-21T08:19:56.093Z,15.23
2019-04-21T08:21:42.023Z,15.17
2019-04-21T08:23:20.380Z,11.67
2019-04-21T08:24:59.384Z,8.70
2019-04-21T08:26:35.907Z,11.10
2019-04-21T08:28:09.099Z,12.07
2019-04-21T08:29:51.974Z,10.23
2019-04-21T08:31:34.429Z,10.33
2019-04-21T08:33:19.045Z,10.80
2019-04-21T08:34:42.963Z,10.43
2019-04-21T08:36:24.725Z,11.80
2019-04-21T08:37:55.232Z,12.47
2019-04-21T08:39:50.998Z,10.77
2019-04-21T08:41:12.343Z,12.67
2019-04-21T08:44:33.838Z,13.43
2019-04-21T08:46:13.784Z,16.20
2019-04-21T08:49:26.572Z,9.97
2019-04-21T08:51:21.084Z,9.33
2019-04-21T08:52:51.758Z,9.93
2019-04-21T08:54:26.532Z,10.03
2019-04-21T08:58:00.891Z,12.07
2019-04-21T08:59:31.455Z,11.27
2019-04-21T09:01:18.117Z,14.57
2019-04-21T09:03:02.165Z,11.67
2019-04-21T09:04:33.931Z,11.73
2019-04-21T09:06:20.414Z,8.70
2019-04-21T09:07:51.288Z,14.17
2019-04-21T09:09:31.965Z,10.47
2019-04-21T09:11:09.762Z,13.63
2019-04-21T09:12:46.587Z,10.50
2019-04-21T09:14:27.313Z,8.97
2019-04-21T09:15:58.101Z,9.70
2019-04-21T09:17:35.515Z,13.13
2019-04-21T09:19:35.350Z,8.73
2019-04-21T09:21:00.160Z,9.20
2019-04-21T09:22:35.857Z,10.90
2019-04-21T09:24:19.009Z,12.27
2019-04-21T09:25:52.649Z,10.60
2019-04-21T09:27:25.730Z,12.10
2019-04-21T09:29:03.408Z,17.43
2019-04-21T09:30:33.878Z,11.57
2019-04-21T09:32:14.611Z,8.23
2019-04-21T09:33:49.010Z,9.97
2019-04-21T09:35:24.083Z,8.00
2019-04-21T09:37:34.041Z,11.37
2019-04-21T09:39:06.649Z,9.40
2019-04-21T09:40:41.818Z,10.80
2019-04-21T09:42:16.767Z,8.87
2019-04-21T09:43:55.704Z,12.40
2019-04-21T09:45:30.715Z,10.30
2019-04-21T09:47:08.878Z,7.57
2019-04-21T09:48:55.069Z,20.03
2019-04-21T09:50:24.298Z,9.30
2019-04-21T09:52:02.085Z,20.30
2019-04-21T09:53:41.791Z,10.43
2019-04-21T09:55:22.783Z,8.00
2019-04-21T09:57:01.654Z,8.67
2019-04-21T09:58:40.733Z,8.90
2019-04-21T10:00:19.494Z,9.13
2019-04-21T10:02:05.651Z,8.90
2019-04-21T10:03:53.312Z,7.37
2019-04-21T10:05:43.138Z,9.97
2019-04-21T10:07:40.531Z,5.60
2019-04-21T10:09:33.233Z,10.57
2019-04-21T10:11:27.205Z,5.43
2019-04-21T10:13:20.867Z,8.00
2019-04-21T10:15:16.410Z,5.87
2019-04-21T10:17:24.053Z,8.00
2019-04-21T10:19:17.823Z,5.67
2019-04-21T10:21:11.592Z,5.70
2019-04-21T10:23:05.441Z,8.40
2019-04-21T10:24:58.975Z,21.00
2019-04-21T10:26:53.486Z,6.40
2019-04-21T10:28:47.048Z,10.50
2019-04-21T10:30:40.874Z,7.33
2019-04-21T10:32:34.544Z,8.83
2019-04-21T10:34:29.304Z,7.87
2019-04-21T10:36:22.930Z,5.77
2019-04-21T10:38:26.145Z,6.33
2019-04-21T10:40:13.714Z,7.63
2019-04-21T10:42:07.202Z,24.97
2019-04-21T10:44:01.057Z,7.07
2019-04-21T10:45:54.909Z,8.70
2019-04-21T10:47:49.338Z,4.87
2019-04-21T10:49:44.572Z,4.10
2019-04-21T10:51:39.318Z,6.53
2019-04-21T10:53:34.897Z,8.60
2019-04-21T10:55:44.604Z,10.93
2019-04-21T10:57:26.493Z,5.77
2019-04-21T10:59:20.531Z,5.77
2019-04-21T11:01:16.776Z,7.40
2019-04-21T11:03:29.080Z,6.10
2019-04-21T11:05:08.970Z,5.00
2019-04-21T11:06:46.441Z,8.93
2019-04-21T11:08:30.051Z,5.27
2019-04-21T11:10:02.484Z,5.27
2019-04-21T11:11:41.707Z,5.40
2019-04-21T11:13:18.823Z,8.07
2019-04-21T11:14:55.338Z,5.43
2019-04-21T11:16:33.115Z,7.93
2019-04-21T11:18:10.269Z,8.23
2019-04-21T11:19:46.700Z,12.47
2019-04-21T11:21:23.104Z,13.00
2019-04-21T11:22:59.660Z,6.93
2019-04-21T11:24:36.721Z,6.70
2019-04-21T11:26:13.962Z,7.60
2019-04-21T11:27:51.184Z,7.63
2019-04-21T11:29:28.618Z,7.90
2019-04-21T11:31:06.931Z,8.90
2019-04-21T11:32:46.344Z,7.67
2019-04-21T11:34:22.986Z,9.03
2019-04-21T11:35:59.470Z,7.27
2019-04-21T11:37:36.141Z,6.63
2019-04-21T11:39:25.644Z,6.13
2019-04-21T11:40:52.285Z,11.17
2019-04-21T11:42:30.327Z,11.73
2019-04-21T11:44:07.903Z,7.27
2019-04-21T11:45:48.524Z,8.03
2019-04-21T11:47:27.785Z,11.57
2019-04-21T11:49:04.445Z,9.03
2019-04-21T11:50:41.314Z,7.87
2019-04-21T11:52:18.857Z,6.67
2019-04-21T11:53:56.884Z,8.00
2019-04-21T11:55:37.765Z,11.90
2019-04-21T11:57:17.649Z,14.30
2019-04-21T11:58:49.960Z,7.60
2019-04-21T12:00:27.381Z,9.63
2019-04-21T12:02:03.714Z,7.03
2019-04-21T12:03:40.057Z,12.80
2019-04-21T12:05:17.314Z,10.90
2019-04-21T12:06:55.636Z,7.40
2019-04-21T12:08:40.207Z,6.63
2019-04-21T12:10:11.309Z,10.33
2019-04-21T12:11:47.917Z,8.67
2019-04-21T12:13:24.550Z,8.23
2019-04-21T12:15:02.198Z,6.90
2019-04-21T12:16:39.160Z,8.27
2019-04-21T12:18:17.825Z,8.03
2019-04-21T12:19:54.752Z,11.00
2019-04-21T12:21:45.159Z,6.47
2019-04-21T12:23:09.226Z,7.23
2019-04-21T12:24:47.013Z,9.40
2019-04-21T12:26:24.179Z,9.03
2019-04-21T12:28:01.731Z,8.60
2019-04-21T12:29:38.106Z,8.17
2019-04-21T12:31:33.657Z,9.77
2019-04-21T12:33:13.989Z,9.03
2019-04-21T12:34:52.259Z,7.17
2019-04-21T12:36:29.828Z,7.63
2019-04-21T12:38:06.727Z,9.13
2019-04-21T12:39:43.166Z,7.27
2019-04-21T12:41:20.387Z,8.50
2019-04-21T12:42:57.057Z,8.17
2019-04-21T12:44:33.631Z,9.67
2019-04-21T12:46:10.096Z,7.83
2019-04-21T12:47:49.906Z,9.30
2019-04-21T12:49:25.608Z,8.80
2019-04-21T12:51:02.149Z,7.67
2019-04-21T12:52:39.759Z,7.60
2019-04-21T12:54:17.455Z,7.10
2019-04-21T12:55:53.869Z,11.03
2019-04-21T12:57:31.859Z,30.50
2019-04-21T12:59:08.352Z,7.37
2019-04-21T13:00:44.985Z,8.40
2019-04-21T13:02:21.954Z,8.63
2019-04-21T13:03:59.603Z,7.97
2019-04-21T13:05:36.227Z,8.80
2019-04-21T13:07:13.307Z,6.53
2019-04-21T13:08:58.970Z,8.73
2019-04-21T13:10:28.450Z,6.53
2019-04-21T13:12:08.982Z,10.67
2019-04-21T13:13:48.055Z,7.43
2019-04-21T13:15:25.393Z,9.37
2019-04-21T13:17:01.953Z,7.20
2019-04-21T13:18:39.599Z,9.40
2019-04-21T13:20:17.100Z,10.53
2019-04-21T13:21:54.021Z,10.07
2019-04-21T13:23:31.314Z,7.70
2019-04-21T13:25:09.739Z,7.40
2019-04-21T13:26:52.738Z,9.10
2019-04-21T13:28:24.937Z,7.80
2019-04-21T13:30:02.217Z,7.43
2019-04-21T13:31:40.085Z,10.07
2019-04-21T13:33:16.948Z,9.53
2019-04-21T13:34:54.887Z,8.47
2019-04-21T13:36:31.882Z,8.80
2019-04-21T13:38:19.889Z,8.33
2019-04-21T13:40:24.884Z,9.33
2019-04-21T13:41:57.070Z,7.47
2019-04-21T13:43:21.320Z,9.23
2019-04-21T13:45:00.553Z,8.23
2019-04-21T13:46:36.519Z,7.70
2019-04-21T13:48:14.668Z,8.70
2019-04-21T13:49:50.971Z,8.23
2019-04-21T13:51:29.233Z,30.00
2019-04-21T13:53:06.913Z,12.00
2019-04-21T13:54:43.323Z,8.57
2019-04-21T13:56:20.436Z,7.77
2019-04-21T13:57:56.926Z,8.17
2019-04-21T13:59:34.276Z,8.53
2019-04-21T14:01:11.797Z,7.70
2019-04-21T14:02:49.000Z,7.80
2019-04-21T14:04:25.651Z,8.07
2019-04-21T14:06:04.415Z,6.97
2019-04-21T14:07:41.979Z,11.17
2019-04-21T14:09:19.853Z,9.67
2019-04-21T14:10:56.016Z,8.07
2019-04-21T14:12:32.814Z,8.10
2019-04-21T14:14:10.399Z,8.43
2019-04-21T14:15:49.737Z,8.40
2019-04-21T14:17:24.733Z,9.33
2019-04-21T14:19:01.472Z,9.43
2019-04-21T14:20:39.452Z,8.13
2019-04-21T14:22:18.090Z,9.13
2019-04-21T14:23:55.953Z,9.53
2019-04-21T14:25:33.641Z,8.20
2019-04-21T14:27:10.221Z,9.07
2019-04-21T14:28:49.222Z,9.00
2019-04-21T14:30:26.425Z,9.13
2019-04-21T14:32:04.262Z,10.57
2019-04-21T14:33:40.630Z,9.40
2019-04-21T14:35:18.832Z,7.80
2019-04-21T14:36:55.230Z,11.23
2019-04-21T14:38:32.730Z,9.67
2019-04-21T14:40:15.604Z,9.53
2019-04-21T14:41:50.476Z,7.67
2019-04-21T14:43:28.045Z,8.63
2019-04-21T14:45:06.997Z,10.60
2019-04-21T14:46:45.085Z,11.97
2019-04-21T14:48:21.269Z,12.27
2019-04-21T14:50:15.526Z,10.97
2019-04-21T14:51:56.894Z,7.83
2019-04-21T14:53:36.040Z,7.97
2019-04-21T14:55:23.052Z,9.10
2019-04-21T14:56:59.396Z,7.70
2019-04-21T14:58:37.463Z,8.23
2019-04-21T15:00:18.988Z,8.77
2019-04-21T15:01:55.820Z,9.73
2019-04-21T15:03:34.094Z,8.87
2019-04-21T15:05:11.605Z,26.10
2019-04-21T15:06:49.481Z,16.80
2019-04-21T15:08:27.033Z,12.13
2019-04-21T15:10:13.292Z,8.50
2019-04-21T15:11:44.345Z,8.50
2019-04-21T15:13:21.790Z,8.63
2019-04-21T15:14:58.242Z,8.03
2019-04-21T15:16:34.737Z,7.73
2019-04-21T15:18:12.478Z,11.07
2019-04-21T15:19:56.052Z,7.60
2019-04-21T15:21:26.914Z,10.60
2019-04-21T15:23:04.252Z,13.47
2019-04-21T15:24:40.670Z,8.27
2019-04-21T15:26:18.031Z,10.60
2019-04-21T15:27:54.969Z,8.47
2019-04-21T15:29:32.901Z,13.50
2019-04-21T15:31:12.789Z,9.33
2019-04-21T15:32:48.534Z,11.47
2019-04-21T15:34:26.010Z,7.53
2019-04-21T15:36:03.256Z,11.43
2019-04-21T15:37:39.892Z,18.83
2019-04-21T15:39:17.429Z,13.57
2019-04-21T15:40:57.219Z,8.97
2019-04-21T15:42:32.601Z,6.80
2019-04-21T15:44:09.918Z,8.97
2019-04-21T15:45:46.776Z,9.30
2019-04-21T15:47:23.940Z,8.27
2019-04-21T15:49:00.567Z,8.97
2019-04-21T15:50:37.816Z,14.13
2019-04-21T15:52:14.212Z,9.67
2019-04-21T15:53:51.928Z,29.27
2019-04-21T15:55:44.512Z,14.23
2019-04-21T15:57:23.773Z,10.33
2019-04-21T15:59:04.581Z,9.90
2019-04-21T16:00:45.234Z,8.33
2019-04-21T16:02:42.555Z,9.40
2019-04-21T16:04:19.015Z,10.57
2019-04-21T16:05:55.826Z,9.40
2019-04-21T16:07:32.266Z,10.07
2019-04-21T16:09:16.185Z,8.77
2019-04-21T16:10:54.717Z,12.13
2019-04-21T16:12:27.740Z,12.33
2019-04-21T16:14:05.903Z,10.37
2019-04-21T16:15:42.343Z,8.20
2019-04-21T16:17:19.235Z,9.90
2019-04-21T16:18:56.272Z,8.27
2019-04-21T16:20:33.163Z,11.70
2019-04-21T16:22:10.814Z,8.77
2019-04-21T16:23:48.573Z,8.43
2019-04-21T16:25:26.582Z,9.63
2019-04-21T16:27:06.633Z,9.00
2019-04-21T16:28:41.694Z,8.17
2019-04-21T16:30:19.679Z,8.63
2019-04-21T16:31:57.358Z,10.37
2019-04-21T16:33:33.858Z,8.33
2019-04-21T16:35:14.054Z,26.43
2019-04-21T16:36:49.729Z,8.67
2019-04-21T16:38:26.016Z,12.13
2019-04-21T16:40:03.354Z,10.13
2019-04-21T16:41:40.360Z,11.83
2019-04-21T16:43:18.345Z,11.53
2019-04-21T16:44:55.222Z,15.53
2019-04-21T16:46:31.664Z,15.50
2019-04-21T16:48:09.481Z,11.70
2019-04-21T16:49:47.506Z,9.43
2019-04-21T16:51:24.241Z,9.70
2019-04-21T16:53:03.670Z,13.73
2019-04-21T16:54:42.082Z,22.93
2019-04-21T16:56:29.189Z,15.10
2019-04-21T16:58:14.447Z,9.83
2019-04-21T16:59:46.578Z,11.03
2019-04-21T17:01:31.761Z,10.83
2019-04-21T17:03:08.485Z,14.57
2019-04-21T17:04:44.818Z,10.53
2019-04-21T17:06:21.171Z,14.10
2019-04-21T17:07:59.687Z,10.57
2019-04-21T17:09:36.816Z,11.70
2019-04-21T17:11:19.471Z,11.80
2019-04-21T17:12:51.462Z,10.93
2019-04-21T17:14:46.429Z,8.83
2019-04-21T17:16:29.599Z,13.30
2019-04-21T17:18:04.151Z,12.13
2019-04-21T17:19:29.450Z,11.30
2019-04-21T17:21:03.561Z,10.50
2019-04-21T17:22:39.936Z,10.40
2019-04-21T17:24:16.751Z,11.63
2019-04-21T17:25:53.347Z,15.10
2019-04-21T17:27:31.096Z,9.77
2019-04-21T17:29:08.162Z,10.57
2019-04-21T17:30:44.521Z,10.60
2019-04-21T17:32:25.032Z,10.37
2019-04-21T17:34:06.325Z,14.90
2019-04-21T17:35:40.793Z,13.57
2019-04-21T17:37:20.101Z,13.63
2019-04-21T17:38:55.759Z,13.17
2019-04-21T17:40:33.791Z,12.97
2019-04-21T17:42:18.597Z,16.97
2019-04-21T17:43:49.814Z,18.53
2019-04-21T17:45:27.034Z,20.30
2019-04-21T17:47:06.211Z,15.63
2019-04-21T17:48:42.864Z,16.43
2019-04-21T17:50:20.247Z,16.17
2019-04-21T17:52:16.893Z,17.97
2019-04-21T17:53:57.620Z,23.73
2019-04-21T17:55:40.548Z,29.70
2019-04-21T17:57:36.647Z,36.37
2019-04-21T17:59:16.349Z,33.87
2019-04-21T18:02:35.468Z,33.13
2019-04-21T18:04:15.283Z,38.27
2019-04-21T18:05:47.471Z,38.93
2019-04-21T18:07:29.958Z,43.30
2019-04-21T18:09:11.432Z,44.10
2019-04-21T18:10:42.346Z,43.07
2019-04-21T18:12:21.117Z,50.67
2019-04-21T18:13:43.913Z,46.63
2019-04-21T18:15:38.318Z,44.83
2019-04-21T18:17:00.396Z,43.90
2019-04-21T18:18:36.980Z,43.63
2019-04-21T18:20:15.923Z,40.07
2019-04-21T18:21:59.204Z,40.27
2019-04-21T18:23:47.020Z,45.00
2019-04-21T18:25:32.034Z,45.93
2019-04-21T18:27:02.090Z,46.50
2019-04-21T18:28:36.677Z,42.43
2019-04-21T18:30:40.286Z,44.10
2019-04-21T18:32:24.792Z,48.27
2019-04-21T18:34:03.462Z,40.90
2019-04-21T18:35:44.737Z,36.07
2019-04-21T18:37:26.195Z,32.80
2019-04-21T18:39:12.599Z,29.20
2019-04-21T18:40:41.408Z,26.90
2019-04-21T18:42:37.526Z,26.93
2019-04-21T18:46:07.017Z,27.60
2019-04-21T18:47:57.085Z,28.50
2019-04-21T18:49:21.859Z,31.73
2019-04-21T18:51:20.377Z,30.23
2019-04-21T18:53:08.889Z,29.90
2019-04-21T18:54:50.166Z,28.93
2019-04-21T18:56:16.513Z,34.00
2019-04-21T18:57:53.330Z,34.60
2019-04-21T18:59:37.186Z,30.93
2019-04-21T19:01:14.848Z,29.67
2019-04-21T19:02:51.089Z,29.77
2019-04-21T19:04:26.503Z,29.13
2019-04-21T19:06:09.835Z,38.63
2019-04-21T19:08:04.438Z,32.20
2019-04-21T19:10:04.424Z,53.07
2019-04-21T19:11:19.578Z,52.63
2019-04-21T19:13:20.491Z,48.20
2019-04-21T19:14:35.942Z,49.33
2019-04-21T19:16:31.618Z,51.37
2019-04-21T19:21:08.746Z,33.53
2019-04-21T19:22:47.710Z,31.63
2019-04-21T19:24:29.120Z,32.57
2019-04-21T19:26:20.294Z,29.43
2019-04-21T19:27:43.972Z,25.80
2019-04-21T19:29:34.628Z,30.33
2019-04-21T19:31:04.332Z,29.20
2019-04-21T19:32:33.193Z,23.33
2019-04-21T19:34:05.641Z,23.93
2019-04-21T19:35:35.315Z,27.23
2019-04-21T19:37:17.349Z,19.93
2019-04-21T19:38:59.598Z,18.70
2019-04-21T19:40:48.738Z,19.63
2019-04-21T19:42:18.509Z,21.90
2019-04-21T19:44:02.766Z,29.83
2019-04-21T19:45:39.619Z,25.57
2019-04-21T19:47:25.751Z,27.37
2019-04-21T19:49:05.514Z,26.37
2019-04-21T19:50:43.936Z,21.97
2019-04-21T19:52:05.243Z,19.80
2019-04-21T19:53:44.883Z,22.37
2019-04-21T19:55:14.395Z,25.93
2019-04-21T19:56:51.457Z,25.33
2019-04-21T19:58:33.797Z,27.63
2019-04-21T20:00:10.068Z,35.00
2019-04-21T20:01:49.961Z,30.40
2019-04-21T20:03:26.326Z,40.47
2019-04-21T20:05:07.939Z,111.60
2019-04-21T20:06:52.176Z,65.77
2019-04-21T20:08:32.517Z,63.83
2019-04-21T20:10:23.980Z,68.33
2019-04-21T20:11:52.419Z,55.97
2019-04-21T20:13:48.875Z,48.97
2019-04-21T20:15:20.216Z,47.93
2019-04-21T20:16:45.284Z,42.50
2019-04-21T20:18:21.255Z,38.87
2019-04-21T20:19:47.783Z,39.90
2019-04-21T20:21:24.894Z,33.03
2019-04-21T20:23:02.964Z,20.80
2019-04-21T20:24:44.652Z,25.00
2019-04-21T20:26:24.614Z,24.63
2019-04-21T20:28:03.713Z,24.33
2019-04-21T20:29:57.673Z,25.83
2019-04-21T20:31:30.081Z,26.73
2019-04-21T20:33:38.106Z,30.77
2019-04-21T20:34:56.307Z,20.43
2019-04-21T20:36:33.162Z,19.87
2019-04-21T20:38:11.507Z,22.67
2019-04-21T20:39:39.142Z,20.60
2019-04-21T20:41:22.333Z,21.60
2019-04-21T20:43:08.643Z,22.30
2019-04-21T20:44:43.722Z,20.87
2019-04-21T20:46:15.672Z,18.50
2019-04-21T20:47:44.757Z,16.47
2019-04-21T20:49:31.698Z,17.63
2019-04-21T20:51:13.018Z,18.83
2019-04-21T20:52:53.884Z,24.43
2019-04-21T20:54:28.595Z,19.47
2019-04-21T20:56:03.446Z,18.40
2019-04-21T20:57:41.771Z,15.83
2019-04-21T20:59:19.766Z,20.27
2019-04-21T21:01:21.938Z,24.10
2019-04-21T21:02:47.032Z,13.40
2019-04-21T21:04:17.805Z,16.13
2019-04-21T21:05:55.182Z,15.43
2019-04-21T21:07:44.116Z,15.33
2019-04-21T21:09:14.267Z,13.73
2019-04-21T21:10:50.013Z,15.77
2019-04-21T21:12:43.087Z,18.73
2019-04-21T21:14:11.907Z,16.47
2019-04-21T21:17:46.820Z,22.77
2019-04-21T21:20:55.705Z,16.83
2019-04-21T21:22:29.641Z,15.97
2019-04-21T21:24:08.665Z,19.83
2019-04-21T21:25:50.761Z,17.30
2019-04-21T21:27:24.893Z,17.40
2019-04-21T21:28:57.425Z,19.67
2019-04-21T21:30:37.628Z,18.03
2019-04-21T21:32:20.910Z,16.83
2019-04-21T21:34:08.243Z,17.13
2019-04-21T21:35:37.163Z,16.47
2019-04-21T21:37:29.269Z,16.53
2019-04-21T21:38:54.565Z,16.53
2019-04-21T21:40:30.418Z,17.77
2019-04-21T21:41:59.790Z,21.80
2019-04-21T21:43:34.910Z,19.37
2019-04-21T21:45:17.941Z,14.27
2019-04-21T21:47:04.303Z,13.70
2019-04-21T21:48:40.678Z,17.03
2019-04-21T21:50:19.084Z,17.47
2019-04-21T21:51:59.135Z,18.03
2019-04-21T21:53:28.484Z,16.77
2019-04-21T21:55:03.594Z,19.90
2019-04-21T21:56:40.784Z,18.87
2019-04-21T21:58:25.126Z,17.73
2019-04-21T22:00:02.844Z,16.87
2019-04-21T22:01:39.912Z,20.00
2019-04-21T22:03:22.709Z,21.57
2019-04-21T22:05:01.245Z,16.97
2019-04-21T22:06:38.678Z,17.27
2019-04-21T22:08:08.085Z,15.63
2019-04-21T22:09:44.570Z,14.80
2019-04-21T22:11:22.162Z,17.63
2019-04-21T22:13:06.441Z,18.87
2019-04-21T22:14:44.676Z,24.63
2019-04-21T22:16:17.776Z,26.97
2019-04-21T22:18:13.375Z,30.03
2019-04-21T22:19:52.272Z,28.67
2019-04-21T22:21:27.911Z,31.03
2019-04-21T22:22:56.569Z,33.13
2019-04-21T22:24:42.683Z,31.93
2019-04-21T22:26:05.401Z,25.17
2019-04-21T22:27:43.377Z,19.57
2019-04-21T22:29:21.292Z,26.27
2019-04-21T22:30:58.731Z,21.23
2019-04-21T22:32:36.849Z,18.77
2019-04-21T22:34:16.259Z,23.20
2019-04-21T22:36:00.389Z,23.47
2019-04-21T22:37:41.566Z,20.20
2019-04-21T22:39:28.350Z,17.20
2019-04-21T22:41:00.310Z,16.17
2019-04-21T22:42:33.186Z,15.37
2019-04-21T22:44:06.838Z,14.60
2019-04-21T22:45:43.331Z,18.87
2019-04-21T22:47:24.975Z,16.43
2019-04-21T22:49:03.759Z,17.53
2019-04-21T22:50:40.559Z,14.77
2019-04-21T22:52:20.979Z,18.90
2019-04-21T22:53:57.612Z,19.27
2019-04-21T22:55:35.155Z,23.10
2019-04-21T22:57:16.595Z,16.87